sensor_id;sensor_type;location;lat;lon;timestamp;pressure;altitude;pressure_sealevel;temperature;humidity
2675;BME280;1347;42.122;24.746;2024-02-26T00:01:11;99164.72;;;11.43;100.00
2675;BME280;1347;42.122;24.746;2024-02-26T00:03:38;99159.63;;;11.38;100.00
2675;BME280;1347;42.122;24.746;2024-02-26T00:06:07;99152.56;;;11.40;100.00
2675;BME280;1347;42.122;24.746;2024-02-26T00:08:34;99156.13;;;11.44;100.00
2675;BME280;1347;42.122;24.746;2024-02-26T00:11:01;99154.16;;;11.45;100.00
2675;BME280;1347;42.122;24.746;2024-02-26T00:13:28;99153.03;;;11.50;100.00
2675;BME280;1347;42.122;24.746;2024-02-26T00:15:54;99154.94;;;11.46;100.00
2675;BME280;1347;42.122;24.746;2024-02-26T00:18:23;99149.03;;;11.40;100.00
2675;BME280;1347;42.122;24.746;2024-02-26T00:20:49;99146.69;;;11.38;100.00
2675;BME280;1347;42.122;24.746;2024-02-26T00:23:16;99145.56;;;11.47;100.00
2675;BME280;1347;42.122;24.746;2024-02-26T00:25:43;99163.53;;;11.37;100.00
2675;BME280;1347;42.122;24.746;2024-02-26T00:28:10;99159.56;;;11.31;100.00
2675;BME280;1347;42.122;24.746;2024-02-26T00:30:38;99158.31;;;11.18;100.00
2675;BME280;1347;42.122;24.746;2024-02-26T00:33:05;99141.06;;;11.17;100.00
2675;BME280;1347;42.122;24.746;2024-02-26T00:35:33;99151.28;;;11.24;100.00
2675;BME280;1347;42.122;24.746;2024-02-26T00:38:00;99161.94;;;11.29;100.00
2675;BME280;1347;42.122;24.746;2024-02-26T00:40:27;99163.88;;;11.28;100.00
2675;BME280;1347;42.122;24.746;2024-02-26T00:42:54;99149.38;;;11.31;100.00
2675;BME280;1347;42.122;24.746;2024-02-26T00:45:21;99143.91;;;11.35;100.00
2675;BME280;1347;42.122;24.746;2024-02-26T00:47:48;99161.94;;;11.29;100.00
2675;BME280;1347;42.122;24.746;2024-02-26T00:50:15;99154.00;;;11.17;100.00
2675;BME280;1347;42.122;24.746;2024-02-26T00:52:43;99124.97;;;11.12;100.00
2675;BME280;1347;42.122;24.746;2024-02-26T00:55:10;99099.50;;;11.15;100.00
2675;BME280;1347;42.122;24.746;2024-02-26T00:57:37;99092.88;;;11.16;100.00
2675;BME280;1347;42.122;24.746;2024-02-26T01:00:06;99085.41;;;11.17;100.00
2675;BME280;1347;42.122;24.746;2024-02-26T01:02:34;99070.09;;;11.12;100.00
2675;BME280;1347;42.122;24.746;2024-02-26T01:05:00;99069.72;;;11.14;100.00
2675;BME280;1347;42.122;24.746;2024-02-26T01:07:28;99072.84;;;11.09;100.00
2675;BME280;1347;42.122;24.746;2024-02-26T01:10:00;99091.88;;;10.84;100.00
2675;BME280;1347;42.122;24.746;2024-02-26T01:12:27;99095.06;;;10.93;100.00
2675;BME280;1347;42.122;24.746;2024-02-26T01:14:54;99071.56;;;10.92;100.00
2675;BME280;1347;42.122;24.746;2024-02-26T01:17:20;99099.03;;;10.99;100.00
2675;BME280;1347;42.122;24.746;2024-02-26T01:19:47;99109.94;;;10.88;100.00
2675;BME280;1347;42.122;24.746;2024-02-26T01:22:14;99099.72;;;10.85;100.00
2675;BME280;1347;42.122;24.746;2024-02-26T01:24:41;99078.13;;;10.77;100.00
2675;BME280;1347;42.122;24.746;2024-02-26T01:27:09;99095.03;;;10.89;100.00
2675;BME280;1347;42.122;24.746;2024-02-26T01:29:36;99104.50;;;10.95;100.00
2675;BME280;1347;42.122;24.746;2024-02-26T01:32:03;99117.38;;;10.91;100.00
2675;BME280;1347;42.122;24.746;2024-02-26T01:34:31;99107.50;;;10.80;100.00
2675;BME280;1347;42.122;24.746;2024-02-26T01:36:58;99099.72;;;10.85;100.00
2675;BME280;1347;42.122;24.746;2024-02-26T01:39:25;99105.25;;;10.89;100.00
2675;BME280;1347;42.122;24.746;2024-02-26T01:41:53;99111.47;;;10.86;100.00
2675;BME280;1347;42.122;24.746;2024-02-26T01:44:21;99112.69;;;10.92;100.00
2675;BME280;1347;42.122;24.746;2024-02-26T01:46:48;99112.34;;;10.97;100.00
2675;BME280;1347;42.122;24.746;2024-02-26T01:49:15;99097.84;;;11.00;100.00
2675;BME280;1347;42.122;24.746;2024-02-26T01:51:43;99103.72;;;10.98;100.00
2675;BME280;1347;42.122;24.746;2024-02-26T01:54:11;99102.16;;;11.01;100.00
2675;BME280;1347;42.122;24.746;2024-02-26T01:56:38;99107.69;;;11.04;100.00
2675;BME280;1347;42.122;24.746;2024-02-26T01:59:07;99104.97;;;11.08;100.00
2675;BME280;1347;42.122;24.746;2024-02-26T02:01:36;99099.44;;;11.04;100.00
2675;BME280;1347;42.122;24.746;2024-02-26T02:04:05;99108.34;;;10.87;100.00
2675;BME280;1347;42.122;24.746;2024-02-26T02:06:32;99087.63;;;10.93;100.00
2675;BME280;1347;42.122;24.746;2024-02-26T02:08:59;99088.03;;;10.95;100.00
2675;BME280;1347;42.122;24.746;2024-02-26T02:11:31;99093.53;;;10.95;100.00
2675;BME280;1347;42.122;24.746;2024-02-26T02:13:59;99091.56;;;10.99;100.00
2675;BME280;1347;42.122;24.746;2024-02-26T02:16:26;99097.47;;;10.98;100.00
2675;BME280;1347;42.122;24.746;2024-02-26T02:18:54;99098.63;;;11.00;100.00
2675;BME280;1347;42.122;24.746;2024-02-26T02:21:22;99101.38;;;11.00;100.00
2675;BME280;1347;42.122;24.746;2024-02-26T02:23:49;99099.41;;;11.01;100.00
2675;BME280;1347;42.122;24.746;2024-02-26T02:26:16;99099.03;;;11.02;100.00
2675;BME280;1347;42.122;24.746;2024-02-26T02:28:44;99098.22;;;10.95;100.00
2675;BME280;1347;42.122;24.746;2024-02-26T02:31:12;99100.13;;;10.87;100.00
2675;BME280;1347;42.122;24.746;2024-02-26T02:33:39;99092.66;;;10.84;100.00
2675;BME280;1347;42.122;24.746;2024-02-26T02:36:06;99105.97;;;10.82;100.00
2675;BME280;1347;42.122;24.746;2024-02-26T02:38:36;99104.38;;;10.81;100.00
2675;BME280;1347;42.122;24.746;2024-02-26T02:41:04;99100.09;;;10.84;100.00
2675;BME280;1347;42.122;24.746;2024-02-26T02:43:31;99100.50;;;10.86;100.00
2675;BME280;1347;42.122;24.746;2024-02-26T02:45:58;99113.84;;;10.87;100.00
2675;BME280;1347;42.122;24.746;2024-02-26T02:48:25;99109.50;;;10.83;100.00
2675;BME280;1347;42.122;24.746;2024-02-26T02:50:52;99108.66;;;10.75;100.00
2675;BME280;1347;42.122;24.746;2024-02-26T02:53:18;99098.44;;;10.72;100.00
2675;BME280;1347;42.122;24.746;2024-02-26T02:55:47;99108.59;;;10.68;100.00
2675;BME280;1347;42.122;24.746;2024-02-26T02:58:13;99111.72;;;10.70;100.00
2675;BME280;1347;42.122;24.746;2024-02-26T03:00:40;99111.69;;;10.63;100.00
2675;BME280;1347;42.122;24.746;2024-02-26T03:03:07;99106.94;;;10.60;100.00
2675;BME280;1347;42.122;24.746;2024-02-26T03:05:34;99107.72;;;10.57;100.00
2675;BME280;1347;42.122;24.746;2024-02-26T03:08:01;99106.56;;;10.58;100.00
2675;BME280;1347;42.122;24.746;2024-02-26T03:10:28;99112.06;;;10.61;100.00
2675;BME280;1347;42.122;24.746;2024-02-26T03:12:56;99111.25;;;10.57;100.00
2675;BME280;1347;42.122;24.746;2024-02-26T03:15:23;99113.22;;;10.60;100.00
2675;BME280;1347;42.122;24.746;2024-02-26T03:17:50;99117.13;;;10.59;100.00
2675;BME280;1347;42.122;24.746;2024-02-26T03:20:16;99120.69;;;10.63;100.00
2675;BME280;1347;42.122;24.746;2024-02-26T03:22:44;99127.72;;;10.57;100.00
2675;BME280;1347;42.122;24.746;2024-02-26T03:25:11;99123.75;;;10.55;100.00
2675;BME280;1347;42.122;24.746;2024-02-26T03:27:38;99110.81;;;10.48;100.00
2675;BME280;1347;42.122;24.746;2024-02-26T03:30:08;99120.50;;;10.42;100.00
2675;BME280;1347;42.122;24.746;2024-02-26T03:32:35;99112.25;;;10.39;100.00
2675;BME280;1347;42.122;24.746;2024-02-26T03:35:02;99114.59;;;10.37;100.00
2675;BME280;1347;42.122;24.746;2024-02-26T03:37:29;99125.91;;;10.31;100.00
2675;BME280;1347;42.122;24.746;2024-02-26T03:39:56;99119.16;;;10.22;100.00
2675;BME280;1347;42.122;24.746;2024-02-26T03:42:23;99120.63;;;10.16;100.00
2675;BME280;1347;42.122;24.746;2024-02-26T03:44:50;99105.31;;;10.11;100.00
2675;BME280;1347;42.122;24.746;2024-02-26T03:47:18;99116.63;;;10.06;100.00
2675;BME280;1347;42.122;24.746;2024-02-26T03:49:45;99119.72;;;10.05;100.00
2675;BME280;1347;42.122;24.746;2024-02-26T03:52:13;99114.28;;;10.08;100.00
2675;BME280;1347;42.122;24.746;2024-02-26T03:54:40;99113.47;;;10.04;100.00
2675;BME280;1347;42.122;24.746;2024-02-26T03:57:07;99115.06;;;10.05;100.00
2675;BME280;1347;42.122;24.746;2024-02-26T03:59:33;99120.47;;;10.02;100.00
2675;BME280;1347;42.122;24.746;2024-02-26T04:02:01;99122.69;;;9.89;100.00
2675;BME280;1347;42.122;24.746;2024-02-26T04:04:29;99131.16;;;9.77;100.00
2675;BME280;1347;42.122;24.746;2024-02-26T04:06:56;99124.84;;;9.73;100.00
2675;BME280;1347;42.122;24.746;2024-02-26T04:09:23;99125.63;;;9.73;100.00
2675;BME280;1347;42.122;24.746;2024-02-26T04:11:50;99127.16;;;9.71;100.00
2675;BME280;1347;42.122;24.746;2024-02-26T04:14:17;99124.06;;;9.72;100.00
2675;BME280;1347;42.122;24.746;2024-02-26T04:16:43;99119.38;;;9.73;100.00
2675;BME280;1347;42.122;24.746;2024-02-26T04:19:10;99121.38;;;9.76;100.00
2675;BME280;1347;42.122;24.746;2024-02-26T04:21:41;99124.91;;;9.80;100.00
2675;BME280;1347;42.122;24.746;2024-02-26T04:24:07;99120.25;;;9.80;100.00
2675;BME280;1347;42.122;24.746;2024-02-26T04:26:34;99117.13;;;9.82;100.00
2675;BME280;1347;42.122;24.746;2024-02-26T04:29:01;99115.50;;;9.77;100.00
2675;BME280;1347;42.122;24.746;2024-02-26T04:31:28;99118.16;;;9.70;100.00
2675;BME280;1347;42.122;24.746;2024-02-26T04:33:58;99122.72;;;9.59;100.00
2675;BME280;1347;42.122;24.746;2024-02-26T04:36:25;99125.31;;;9.48;100.00
2675;BME280;1347;42.122;24.746;2024-02-26T04:38:53;99124.44;;;9.41;100.00
2675;BME280;1347;42.122;24.746;2024-02-26T04:41:21;99118.56;;;9.39;100.00
2675;BME280;1347;42.122;24.746;2024-02-26T04:43:48;99120.47;;;9.35;100.00
2675;BME280;1347;42.122;24.746;2024-02-26T04:46:15;99124.38;;;9.34;100.00
2675;BME280;1347;42.122;24.746;2024-02-26T04:48:41;99121.16;;;9.28;100.00
2675;BME280;1347;42.122;24.746;2024-02-26T04:51:10;99123.84;;;9.25;100.00
2675;BME280;1347;42.122;24.746;2024-02-26T04:53:37;99122.31;;;9.27;100.00
2675;BME280;1347;42.122;24.746;2024-02-26T04:56:06;99129.06;;;9.37;100.00
2675;BME280;1347;42.122;24.746;2024-02-26T04:58:33;99121.34;;;9.42;100.00
2675;BME280;1347;42.122;24.746;2024-02-26T05:01:00;99129.63;;;9.49;100.00
2675;BME280;1347;42.122;24.746;2024-02-26T05:03:26;99131.22;;;9.50;100.00
2675;BME280;1347;42.122;24.746;2024-02-26T05:05:53;99135.22;;;9.56;100.00
2675;BME280;1347;42.122;24.746;2024-02-26T05:08:20;99143.03;;;9.58;100.00
2675;BME280;1347;42.122;24.746;2024-02-26T05:10:47;99127.38;;;9.55;100.00
2675;BME280;1347;42.122;24.746;2024-02-26T05:13:15;99141.50;;;9.60;100.00
2675;BME280;1347;42.122;24.746;2024-02-26T05:15:43;99138.06;;;9.67;100.00
2675;BME280;1347;42.122;24.746;2024-02-26T05:18:12;99129.47;;;9.69;100.00
2675;BME280;1347;42.122;24.746;2024-02-26T05:20:39;99139.97;;;9.63;100.00
2675;BME280;1347;42.122;24.746;2024-02-26T05:23:06;99142.06;;;9.73;100.00
2675;BME280;1347;42.122;24.746;2024-02-26T05:25:32;99144.44;;;9.75;100.00
2675;BME280;1347;42.122;24.746;2024-02-26T05:27:59;99139.75;;;9.75;100.00
2675;BME280;1347;42.122;24.746;2024-02-26T05:30:27;99151.47;;;9.76;100.00
2675;BME280;1347;42.122;24.746;2024-02-26T05:32:54;99138.59;;;9.76;100.00
2675;BME280;1347;42.122;24.746;2024-02-26T05:35:21;99146.13;;;9.86;100.00
2675;BME280;1347;42.122;24.746;2024-02-26T05:37:48;99148.81;;;9.83;100.00
2675;BME280;1347;42.122;24.746;2024-02-26T05:40:15;99152.50;;;9.97;100.00
2675;BME280;1347;42.122;24.746;2024-02-26T05:42:42;99151.00;;;10.04;100.00
2675;BME280;1347;42.122;24.746;2024-02-26T05:45:10;99149.50;;;10.06;100.00
2675;BME280;1347;42.122;24.746;2024-02-26T05:47:38;99151.06;;;10.07;100.00
2675;BME280;1347;42.122;24.746;2024-02-26T05:50:08;99148.34;;;10.11;100.00
2675;BME280;1347;42.122;24.746;2024-02-26T05:52:36;99148.88;;;10.20;100.00
2675;BME280;1347;42.122;24.746;2024-02-26T05:55:04;99163.50;;;10.35;100.00
2675;BME280;1347;42.122;24.746;2024-02-26T05:57:31;99152.97;;;10.37;100.00
2675;BME280;1347;42.122;24.746;2024-02-26T05:59:58;99166.31;;;10.42;100.00
2675;BME280;1347;42.122;24.746;2024-02-26T06:02:29;99169.50;;;10.47;100.00
2675;BME280;1347;42.122;24.746;2024-02-26T06:04:57;99168.34;;;10.48;100.00
2675;BME280;1347;42.122;24.746;2024-02-26T06:07:24;99179.69;;;10.47;100.00
2675;BME280;1347;42.122;24.746;2024-02-26T06:09:51;99177.50;;;10.66;100.00
2675;BME280;1347;42.122;24.746;2024-02-26T06:12:18;99181.84;;;10.71;100.00
2675;BME280;1347;42.122;24.746;2024-02-26T06:14:45;99188.16;;;10.75;100.00
2675;BME280;1347;42.122;24.746;2024-02-26T06:17:12;99187.75;;;10.73;100.00
2675;BME280;1347;42.122;24.746;2024-02-26T06:19:39;99188.66;;;10.88;100.00
2675;BME280;1347;42.122;24.746;2024-02-26T06:22:07;99189.91;;;10.97;100.00
2675;BME280;1347;42.122;24.746;2024-02-26T06:24:34;99200.50;;;10.99;100.00
2675;BME280;1347;42.122;24.746;2024-02-26T06:27:01;99182.56;;;11.09;100.00
2675;BME280;1347;42.122;24.746;2024-02-26T06:29:28;99196.28;;;11.12;100.00
2675;BME280;1347;42.122;24.746;2024-02-26T06:31:55;99197.47;;;11.15;100.00
2675;BME280;1347;42.122;24.746;2024-02-26T06:34:22;99201.72;;;11.05;100.00
2675;BME280;1347;42.122;24.746;2024-02-26T06:36:48;99208.88;;;11.17;100.00
2675;BME280;1347;42.122;24.746;2024-02-26T06:39:17;99205.78;;;11.25;100.00
2675;BME280;1347;42.122;24.746;2024-02-26T06:41:44;99205.78;;;11.25;100.00
2675;BME280;1347;42.122;24.746;2024-02-26T06:44:12;99203.88;;;11.29;100.00
2675;BME280;1347;42.122;24.746;2024-02-26T06:46:39;99210.94;;;11.34;100.00
2675;BME280;1347;42.122;24.746;2024-02-26T06:49:06;99213.34;;;11.39;100.00
2675;BME280;1347;42.122;24.746;2024-02-26T06:51:33;99216.88;;;11.43;100.00
2675;BME280;1347;42.122;24.746;2024-02-26T06:54:00;99210.66;;;11.50;100.00
2675;BME280;1347;42.122;24.746;2024-02-26T06:56:28;99219.94;;;11.31;100.00
2675;BME280;1347;42.122;24.746;2024-02-26T06:58:55;99226.59;;;11.30;100.00
2675;BME280;1347;42.122;24.746;2024-02-26T07:01:22;99223.78;;;11.19;100.00
2675;BME280;1347;42.122;24.746;2024-02-26T07:03:49;99222.25;;;11.25;100.00
2675;BME280;1347;42.122;24.746;2024-02-26T07:06:15;99215.16;;;11.21;100.00
2675;BME280;1347;42.122;24.746;2024-02-26T07:08:42;99231.97;;;11.16;100.00
2675;BME280;1347;42.122;24.746;2024-02-26T07:11:10;99221.66;;;10.98;100.00
2675;BME280;1347;42.122;24.746;2024-02-26T07:13:38;99222.72;;;10.87;100.00
2675;BME280;1347;42.122;24.746;2024-02-26T07:16:06;99228.53;;;10.78;100.00
2675;BME280;1347;42.122;24.746;2024-02-26T07:18:32;99218.31;;;10.75;100.00
2675;BME280;1347;42.122;24.746;2024-02-26T07:21:01;99217.94;;;10.77;100.00
2675;BME280;1347;42.122;24.746;2024-02-26T07:23:29;99226.50;;;10.72;100.00
2675;BME280;1347;42.122;24.746;2024-02-26T07:25:56;99226.00;;;10.62;100.00
2675;BME280;1347;42.122;24.746;2024-02-26T07:28:23;99228.00;;;10.65;100.00
2675;BME280;1347;42.122;24.746;2024-02-26T07:30:52;99225.94;;;10.55;100.00
2675;BME280;1347;42.122;24.746;2024-02-26T07:33:19;99231.44;;;10.55;100.00
2675;BME280;1347;42.122;24.746;2024-02-26T07:35:46;99228.22;;;10.50;100.00
2675;BME280;1347;42.122;24.746;2024-02-26T07:38:13;99228.34;;;10.60;100.00
2675;BME280;1347;42.122;24.746;2024-02-26T07:40:39;99229.38;;;10.49;100.00
2675;BME280;1347;42.122;24.746;2024-02-26T07:43:06;99227.63;;;10.67;100.00
2675;BME280;1347;42.122;24.746;2024-02-26T07:45:33;99226.97;;;10.81;100.00
2675;BME280;1347;42.122;24.746;2024-02-26T07:48:03;99217.75;;;11.03;100.00
2675;BME280;1347;42.122;24.746;2024-02-26T07:50:30;99217.53;;;11.22;100.00
2675;BME280;1347;42.122;24.746;2024-02-26T07:52:57;99218.75;;;11.28;100.00
2675;BME280;1347;42.122;24.746;2024-02-26T07:55:24;99216.00;;;11.32;100.00
2675;BME280;1347;42.122;24.746;2024-02-26T07:57:51;99216.91;;;11.50;100.00
2675;BME280;1347;42.122;24.746;2024-02-26T08:00:18;99215.88;;;11.69;100.00
2675;BME280;1347;42.122;24.746;2024-02-26T08:02:45;99210.44;;;11.76;100.00
2675;BME280;1347;42.122;24.746;2024-02-26T08:05:14;99212.50;;;11.97;100.00
2675;BME280;1347;42.122;24.746;2024-02-26T08:07:41;99219.19;;;12.03;100.00
2675;BME280;1347;42.122;24.746;2024-02-26T08:10:09;99210.59;;;12.15;100.00
2675;BME280;1347;42.122;24.746;2024-02-26T08:12:36;99217.31;;;12.25;100.00
2675;BME280;1347;42.122;24.746;2024-02-26T08:15:04;99216.94;;;12.33;100.00
2675;BME280;1347;42.122;24.746;2024-02-26T08:17:31;99219.31;;;12.38;100.00
2675;BME280;1347;42.122;24.746;2024-02-26T08:19:59;99222.09;;;12.45;100.00
2675;BME280;1347;42.122;24.746;2024-02-26T08:22:28;99220.53;;;12.48;100.00
2675;BME280;1347;42.122;24.746;2024-02-26T08:24:54;99218.19;;;12.61;100.00
2675;BME280;1347;42.122;24.746;2024-02-26T08:27:20;99216.25;;;12.68;100.00
2675;BME280;1347;42.122;24.746;2024-02-26T08:29:47;99210.75;;;12.75;100.00
2675;BME280;1347;42.122;24.746;2024-02-26T08:32:14;99219.78;;;12.76;100.00
2675;BME280;1347;42.122;24.746;2024-02-26T08:34:42;99216.66;;;12.81;100.00
2675;BME280;1347;42.122;24.746;2024-02-26T08:37:09;99218.63;;;12.95;100.00
2675;BME280;1347;42.122;24.746;2024-02-26T08:39:38;99219.81;;;13.01;100.00
2675;BME280;1347;42.122;24.746;2024-02-26T08:42:05;99217.88;;;13.19;100.00
2675;BME280;1347;42.122;24.746;2024-02-26T08:44:32;99213.53;;;13.14;100.00
2675;BME280;1347;42.122;24.746;2024-02-26T08:46:58;99211.19;;;13.27;100.00
2675;BME280;1347;42.122;24.746;2024-02-26T08:49:25;99214.31;;;13.43;100.00
2675;BME280;1347;42.122;24.746;2024-02-26T08:51:52;99209.56;;;13.51;100.00
2675;BME280;1347;42.122;24.746;2024-02-26T08:54:19;99210.72;;;13.68;100.00
2675;BME280;1347;42.122;24.746;2024-02-26T08:56:47;99220.91;;;13.74;98.73
2675;BME280;1347;42.122;24.746;2024-02-26T08:59:14;99205.97;;;13.82;98.14
2675;BME280;1347;42.122;24.746;2024-02-26T09:01:41;99211.78;;;14.02;97.75
2675;BME280;1347;42.122;24.746;2024-02-26T09:04:08;99212.88;;;14.19;96.33
2675;BME280;1347;42.122;24.746;2024-02-26T09:06:35;99209.38;;;14.08;96.50
2675;BME280;1347;42.122;24.746;2024-02-26T09:09:02;99207.75;;;14.24;95.46
2675;BME280;1347;42.122;24.746;2024-02-26T09:11:29;99210.81;;;14.37;94.97
2675;BME280;1347;42.122;24.746;2024-02-26T09:13:58;99207.63;;;14.49;94.29
2675;BME280;1347;42.122;24.746;2024-02-26T09:16:25;99212.31;;;14.59;93.82
2675;BME280;1347;42.122;24.746;2024-02-26T09:18:52;99216.97;;;14.73;93.42
2675;BME280;1347;42.122;24.746;2024-02-26T09:21:19;99218.13;;;14.76;91.42
2675;BME280;1347;42.122;24.746;2024-02-26T09:23:48;99217.22;;;14.89;90.09
2675;BME280;1347;42.122;24.746;2024-02-26T09:26:15;99209.31;;;14.91;91.45
2675;BME280;1347;42.122;24.746;2024-02-26T09:28:43;99208.47;;;14.98;90.95
2675;BME280;1347;42.122;24.746;2024-02-26T09:31:11;99205.25;;;15.06;90.49
2675;BME280;1347;42.122;24.746;2024-02-26T09:33:38;99212.31;;;15.15;90.48
2675;BME280;1347;42.122;24.746;2024-02-26T09:36:05;99215.06;;;15.15;89.83
2675;BME280;1347;42.122;24.746;2024-02-26T09:38:32;99213.66;;;15.37;89.28
2675;BME280;1347;42.122;24.746;2024-02-26T09:41:03;99209.06;;;15.23;88.57
2675;BME280;1347;42.122;24.746;2024-02-26T09:43:34;99206.00;;;15.10;90.48
2675;BME280;1347;42.122;24.746;2024-02-26T09:46:01;99202.25;;;15.35;90.70
2675;BME280;1347;42.122;24.746;2024-02-26T09:48:31;99209.81;;;15.68;89.88
2675;BME280;1347;42.122;24.746;2024-02-26T09:50:59;99208.00;;;15.92;86.99
2675;BME280;1347;42.122;24.746;2024-02-26T09:53:29;99200.13;;;16.21;86.38
2675;BME280;1347;42.122;24.746;2024-02-26T09:55:57;99202.75;;;16.32;85.69
2675;BME280;1347;42.122;24.746;2024-02-26T09:58:25;99195.50;;;16.41;85.43
2675;BME280;1347;42.122;24.746;2024-02-26T10:00:56;99194.44;;;16.62;84.06
2675;BME280;1347;42.122;24.746;2024-02-26T10:03:25;99184.56;;;16.88;82.84
2675;BME280;1347;42.122;24.746;2024-02-26T10:05:56;99184.19;;;17.33;82.02
2675;BME280;1347;42.122;24.746;2024-02-26T10:08:24;99185.00;;;17.76;79.50
2675;BME280;1347;42.122;24.746;2024-02-26T10:10:51;99182.13;;;17.17;80.20
2675;BME280;1347;42.122;24.746;2024-02-26T10:13:19;99171.75;;;17.21;79.69
2675;BME280;1347;42.122;24.746;2024-02-26T10:15:46;99166.22;;;16.98;80.25
2675;BME280;1347;42.122;24.746;2024-02-26T10:18:15;99167.88;;;17.38;79.19
2675;BME280;1347;42.122;24.746;2024-02-26T10:20:42;99160.38;;;17.58;78.61
2675;BME280;1347;42.122;24.746;2024-02-26T10:23:10;99159.34;;;17.72;76.21
2675;BME280;1347;42.122;24.746;2024-02-26T10:25:36;99144.69;;;17.72;75.73
2675;BME280;1347;42.122;24.746;2024-02-26T10:28:03;99147.31;;;17.59;75.56
2675;BME280;1347;42.122;24.746;2024-02-26T10:30:30;99148.13;;;17.36;76.10
2675;BME280;1347;42.122;24.746;2024-02-26T10:32:59;99143.50;;;17.29;76.93
2675;BME280;1347;42.122;24.746;2024-02-26T10:35:25;99138.88;;;17.43;77.14
2675;BME280;1347;42.122;24.746;2024-02-26T10:37:54;99136.47;;;17.68;76.56
2675;BME280;1347;42.122;24.746;2024-02-26T10:40:22;99134.66;;;17.97;74.81
2675;BME280;1347;42.122;24.746;2024-02-26T10:42:50;99135.22;;;18.09;74.41
2675;BME280;1347;42.122;24.746;2024-02-26T10:45:17;99132.75;;;18.30;74.74
2675;BME280;1347;42.122;24.746;2024-02-26T10:47:44;99123.66;;;18.30;72.44
2675;BME280;1347;42.122;24.746;2024-02-26T10:50:13;99129.00;;;18.21;72.85
2675;BME280;1347;42.122;24.746;2024-02-26T10:52:42;99120.59;;;18.24;72.17
2675;BME280;1347;42.122;24.746;2024-02-26T10:55:15;99119.13;;;18.36;72.12
2675;BME280;1347;42.122;24.746;2024-02-26T10:57:45;99120.38;;;18.51;71.72
2675;BME280;1347;42.122;24.746;2024-02-26T11:00:14;99122.75;;;18.69;71.17
2675;BME280;1347;42.122;24.746;2024-02-26T11:02:41;99115.97;;;18.86;70.08
2675;BME280;1347;42.122;24.746;2024-02-26T11:05:11;99112.66;;;19.07;69.67
2675;BME280;1347;42.122;24.746;2024-02-26T11:07:40;99111.69;;;19.14;69.17
2675;BME280;1347;42.122;24.746;2024-02-26T11:10:09;99105.38;;;18.97;69.73
2675;BME280;1347;42.122;24.746;2024-02-26T11:12:39;99110.31;;;19.06;68.50
2675;BME280;1347;42.122;24.746;2024-02-26T11:15:09;99100.03;;;18.90;68.18
2675;BME280;1347;42.122;24.746;2024-02-26T11:17:36;99103.50;;;18.78;68.36
2675;BME280;1347;42.122;24.746;2024-02-26T11:20:05;99098.50;;;18.53;69.30
2675;BME280;1347;42.122;24.746;2024-02-26T11:22:36;99088.28;;;18.50;67.91
2675;BME280;1347;42.122;24.746;2024-02-26T11:25:04;99096.88;;;18.56;67.52
2675;BME280;1347;42.122;24.746;2024-02-26T11:27:49;99092.19;;;18.53;66.87
2675;BME280;1347;42.122;24.746;2024-02-26T11:30:22;99090.50;;;18.59;66.33
2675;BME280;1347;42.122;24.746;2024-02-26T11:32:50;99082.63;;;18.21;66.34
2675;BME280;1347;42.122;24.746;2024-02-26T11:35:19;99078.47;;;17.93;67.73
2675;BME280;1347;42.122;24.746;2024-02-26T11:37:54;99068.72;;;17.69;69.06
2675;BME280;1347;42.122;24.746;2024-02-26T11:40:22;99073.56;;;17.65;69.39
2675;BME280;1347;42.122;24.746;2024-02-26T11:42:50;99068.84;;;17.82;68.74
2675;BME280;1347;42.122;24.746;2024-02-26T11:45:53;99071.69;;;17.78;69.20
2675;BME280;1347;42.122;24.746;2024-02-26T11:48:25;99061.81;;;17.57;69.44
2675;BME280;1347;42.122;24.746;2024-02-26T11:50:53;99061.28;;;17.82;69.79
2675;BME280;1347;42.122;24.746;2024-02-26T11:53:22;99059.53;;;17.72;69.00
2675;BME280;1347;42.122;24.746;2024-02-26T11:55:48;99055.25;;;17.87;69.58
2675;BME280;1347;42.122;24.746;2024-02-26T11:58:35;99048.03;;;18.10;68.71
2675;BME280;1347;42.122;24.746;2024-02-26T12:01:04;99048.88;;;18.07;68.37
2675;BME280;1347;42.122;24.746;2024-02-26T12:03:31;99051.56;;;17.74;69.67
2675;BME280;1347;42.122;24.746;2024-02-26T12:05:58;99050.22;;;17.62;69.80
2675;BME280;1347;42.122;24.746;2024-02-26T12:08:25;99051.50;;;17.58;70.59
2675;BME280;1347;42.122;24.746;2024-02-26T12:10:54;99051.66;;;17.71;69.48
2675;BME280;1347;42.122;24.746;2024-02-26T12:13:29;99053.00;;;17.62;69.91
2675;BME280;1347;42.122;24.746;2024-02-26T12:15:57;99048.94;;;17.47;70.61
2675;BME280;1347;42.122;24.746;2024-02-26T12:18:26;99039.56;;;17.41;71.04
2675;BME280;1347;42.122;24.746;2024-02-26T12:20:59;99043.31;;;17.31;71.30
2675;BME280;1347;42.122;24.746;2024-02-26T12:23:26;99027.69;;;17.21;72.60
2675;BME280;1347;42.122;24.746;2024-02-26T12:25:54;99033.16;;;17.44;72.25
2675;BME280;1347;42.122;24.746;2024-02-26T12:28:27;99037.47;;;17.85;70.20
2675;BME280;1347;42.122;24.746;2024-02-26T12:30:54;99035.00;;;17.90;69.77
2675;BME280;1347;42.122;24.746;2024-02-26T12:33:30;99034.63;;;17.88;69.69
2675;BME280;1347;42.122;24.746;2024-02-26T12:35:57;99034.03;;;17.97;70.01
2675;BME280;1347;42.122;24.746;2024-02-26T12:38:24;99039.97;;;18.15;69.56
2675;BME280;1347;42.122;24.746;2024-02-26T12:40:53;99039.19;;;18.31;68.77
2675;BME280;1347;42.122;24.746;2024-02-26T12:43:22;99033.63;;;18.47;68.29
2675;BME280;1347;42.122;24.746;2024-02-26T12:45:49;99035.19;;;18.48;67.96
2675;BME280;1347;42.122;24.746;2024-02-26T12:48:16;99028.19;;;18.60;66.93
2675;BME280;1347;42.122;24.746;2024-02-26T12:50:46;99025.66;;;18.65;67.54
2675;BME280;1347;42.122;24.746;2024-02-26T12:53:13;99026.91;;;18.93;67.07
2675;BME280;1347;42.122;24.746;2024-02-26T12:55:40;99027.75;;;19.06;66.02
2675;BME280;1347;42.122;24.746;2024-02-26T12:58:08;99025.19;;;18.83;65.59
2675;BME280;1347;42.122;24.746;2024-02-26T13:00:35;99021.06;;;18.43;66.97
2675;BME280;1347;42.122;24.746;2024-02-26T13:03:03;99034.41;;;18.48;66.99
2675;BME280;1347;42.122;24.746;2024-02-26T13:05:30;99017.88;;;18.60;67.09
2675;BME280;1347;42.122;24.746;2024-02-26T13:07:59;99022.38;;;18.70;66.97